Time;durP1;ratioP1;P1;durP2;ratioP2;P2;SDS_P1;SDS_P2;PMS_P1;PMS_P2;Temp;Humidity;BMP_temperature;BMP_pressure;BME280_temperature;BME280_humidity;BME280_pressure;Samples;Min_cycle;Max_cycle;Signal;HPM_P1;HPM_P2
2022/03/21 00:01:10;;;;;;;9.18;2.30;;;;;;;4.47;55.01;101116.22;4880578;29;20113;-61
2022/03/21 00:03:38;;;;;;;6.72;2.60;;;;;;;4.42;55.42;101118.94;4880876;29;20124;-62
2022/03/21 00:06:06;;;;;;;11.15;2.55;;;;;;;4.40;55.56;101132.13;4880704;29;20174;-62
2022/03/21 00:08:33;;;;;;;11.82;2.42;;;;;;;4.43;55.61;101128.00;4880807;29;20064;-63
2022/03/21 00:11:00;;;;;;;9.48;2.80;;;;;;;4.44;55.61;101121.44;4880537;29;20105;-62
2022/03/21 00:13:28;;;;;;;12.93;2.42;;;;;;;4.45;55.67;101115.66;4880932;29;20072;-62
2022/03/21 00:15:56;;;;;;;6.10;2.42;;;;;;;4.41;55.92;101117.25;4864142;29;20061;-62
2022/03/21 00:18:25;;;;;;;22.00;6.55;;;;;;;4.42;55.49;101112.56;4881118;29;20052;-61
2022/03/21 00:20:54;;;;;;;6.55;2.45;;;;;;;4.38;55.83;101106.72;4880471;29;20068;-61
2022/03/21 00:23:26;;;;;;;10.13;2.90;;;;;;;4.32;56.19;101102.25;4880685;29;20076;-62
2022/03/21 00:25:53;;;;;;;11.30;3.05;;;;;;;4.28;56.45;101101.09;4879602;29;20117;-61
2022/03/21 00:28:20;;;;;;;7.72;2.40;;;;;;;4.29;56.06;101094.47;4880704;29;20049;-62
2022/03/21 00:30:47;;;;;;;10.50;3.47;;;;;;;4.29;56.23;101086.22;4880034;29;20120;-62
2022/03/21 00:33:15;;;;;;;8.23;2.60;;;;;;;4.29;55.98;101086.22;4877126;29;20501;-61
2022/03/21 00:35:42;;;;;;;8.82;2.67;;;;;;;4.27;56.01;101082.91;4879671;29;20053;-62
2022/03/21 00:38:14;;;;;;;10.75;2.03;;;;;;;4.27;56.25;101088.41;4880284;29;20127;-62
2022/03/21 00:40:45;;;;;;;12.82;2.58;;;;;;;4.23;56.40;101086.41;4880393;29;20536;-62
2022/03/21 00:43:21;;;;;;;7.93;3.10;;;;;;;4.18;56.82;101084.44;4880384;29;20501;-63
2022/03/21 00:45:53;;;;;;;7.70;2.45;;;;;;;4.17;56.70;101077.22;4879996;29;20057;-62
2022/03/21 00:48:25;;;;;;;4.93;2.00;;;;;;;4.18;56.80;101089.09;4877565;29;20117;-62
2022/03/21 00:50:53;;;;;;;7.65;2.65;;;;;;;4.15;56.65;101086.84;4879742;29;20144;-62
2022/03/21 00:53:21;;;;;;;7.38;2.17;;;;;;;4.13;56.61;101094.50;4880555;29;20139;-61
2022/03/21 00:55:49;;;;;;;7.82;2.38;;;;;;;4.08;57.17;101097.22;4880060;29;20085;-62
2022/03/21 00:58:17;;;;;;;11.32;3.25;;;;;;;4.08;57.07;101100.78;4880400;29;20084;-62
2022/03/21 01:00:44;;;;;;;8.75;2.70;;;;;;;4.06;56.86;101094.72;4879859;29;20056;-62
2022/03/21 01:03:12;;;;;;;6.25;2.50;;;;;;;4.01;57.27;101091.03;4879953;29;20044;-62
2022/03/21 01:05:39;;;;;;;10.40;2.45;;;;;;;3.99;57.78;101085.78;4879809;29;20063;-62
2022/03/21 01:08:06;;;;;;;53.00;17.02;;;;;;;3.94;57.11;101093.97;4879423;29;20113;-61
2022/03/21 01:10:34;;;;;;;13.75;4.53;;;;;;;3.95;57.33;101101.13;4880557;29;20135;-61
2022/03/21 01:13:01;;;;;;;12.30;2.58;;;;;;;3.98;57.00;101099.78;4879427;29;20065;-62
2022/03/21 01:15:28;;;;;;;17.02;2.83;;;;;;;3.98;57.26;101086.03;4879920;29;20057;-68
2022/03/21 01:17:57;;;;;;;9.98;2.90;;;;;;;3.92;57.34;101082.38;4879381;29;20052;-67
2022/03/21 01:20:26;;;;;;;7.88;2.83;;;;;;;3.91;57.66;101086.22;4880016;29;20565;-67
2022/03/21 01:22:53;;;;;;;14.48;3.22;;;;;;;3.93;57.48;101081.28;4878977;29;20057;-68
2022/03/21 01:25:20;;;;;;;8.40;2.40;;;;;;;3.93;57.33;101096.97;4873516;29;20061;-67
2022/03/21 01:27:47;;;;;;;13.18;3.35;;;;;;;3.91;57.54;101091.72;4879526;29;20077;-67
2022/03/21 01:30:16;;;;;;;100.72;30.85;;;;;;;3.85;57.81;101081.72;4879677;29;20437;-68
2022/03/21 01:32:43;;;;;;;7.82;2.90;;;;;;;3.83;57.62;101081.13;4878719;29;20473;-67
2022/03/21 01:35:15;;;;;;;10.02;2.58;;;;;;;3.84;57.95;101080.03;4879212;29;20049;-67
2022/03/21 01:37:42;;;;;;;8.57;2.70;;;;;;;3.87;57.50;101084.22;4878223;29;20053;-68
2022/03/21 01:40:11;;;;;;;8.77;2.70;;;;;;;3.84;57.73;101080.03;4876508;29;20049;-67
2022/03/21 01:42:39;;;;;;;12.40;3.17;;;;;;;3.80;57.94;101070.63;4878765;29;20103;-67
2022/03/21 01:45:07;;;;;;;7.95;2.45;;;;;;;3.77;58.00;101076.63;4848321;29;20052;-67
2022/03/21 01:47:34;;;;;;;9.73;2.65;;;;;;;3.75;57.84;101070.53;4879088;29;20057;-68
2022/03/21 01:50:04;;;;;;;6.88;2.40;;;;;;;3.75;58.10;101074.13;4878749;29;20140;-63
2022/03/21 01:52:31;;;;;;;8.52;2.65;;;;;;;3.71;58.29;101074.88;4879040;29;20052;-64
2022/03/21 01:57:45;;;;;;;7.38;2.90;;;;;;;3.70;58.48;101086.94;4878731;29;20080;-64
2022/03/21 02:00:12;;;;;;;14.43;2.67;;;;;;;3.67;58.58;101098.47;4879256;29;20444;-64
2022/03/21 02:02:39;;;;;;;11.07;2.80;;;;;;;3.65;58.69;101095.16;4878602;29;20133;-64
2022/03/21 02:05:07;;;;;;;8.40;2.55;;;;;;;3.61;58.78;101093.94;4878924;29;20145;-64
2022/03/21 02:07:35;;;;;;;10.02;2.17;;;;;;;3.55;58.71;101084.78;4878946;29;20053;-63
2022/03/21 02:10:05;;;;;;;7.20;2.72;;;;;;;3.55;58.65;101086.69;4878218;29;20105;-64
2022/03/21 02:12:34;;;;;;;8.57;2.85;;;;;;;3.51;58.66;101083.63;4878809;29;20045;-64
2022/03/21 02:15:03;;;;;;;4.78;2.10;;;;;;;3.46;58.75;101080.78;4878665;29;20139;-64
2022/03/21 02:17:34;;;;;;;9.30;2.90;;;;;;;3.44;58.88;101084.88;4878424;29;20120;-63
2022/03/21 02:20:03;;;;;;;7.78;2.95;;;;;;;3.43;59.17;101088.69;4862146;29;20052;-63
2022/03/21 02:22:36;;;;;;;7.85;3.33;;;;;;;3.40;58.99;101080.94;4878436;29;20053;-64
2022/03/21 02:25:11;;;;;;;15.13;3.58;;;;;;;3.37;59.04;101073.19;4878396;29;20063;-64
2022/03/21 02:27:39;;;;;;;6.78;2.50;;;;;;;3.34;59.19;101076.44;4878383;29;20152;-63
2022/03/21 02:30:07;;;;;;;9.02;2.88;;;;;;;3.29;59.65;101073.59;4878388;29;20059;-64
2022/03/21 02:32:35;;;;;;;9.13;2.83;;;;;;;3.27;59.56;101087.59;4878593;29;20052;-63
2022/03/21 02:35:09;;;;;;;9.13;3.17;;;;;;;3.17;60.08;101087.41;4862507;29;20052;-64
2022/03/21 02:37:39;;;;;;;12.25;3.30;;;;;;;3.20;59.96;101097.09;4861581;29;20053;-63
2022/03/21 02:40:08;;;;;;;6.55;2.47;;;;;;;3.18;59.86;101085.50;4878049;29;20505;-64
2022/03/21 02:42:36;;;;;;;13.68;3.38;;;;;;;3.17;60.06;101087.41;4878486;29;20057;-63
2022/03/21 02:45:06;;;;;;;11.13;4.03;;;;;;;3.15;60.05;101083.25;4877661;29;20420;-63
2022/03/21 02:47:34;;;;;;;11.35;2.92;;;;;;;3.09;59.89;101087.81;4878267;29;20521;-62
2022/03/21 02:50:03;;;;;;;6.03;2.80;;;;;;;3.09;60.07;101089.72;4877963;29;20089;-62
2022/03/21 02:52:30;;;;;;;17.42;3.05;;;;;;;3.04;60.23;101089.63;4878568;29;20097;-61
2022/03/21 02:54:57;;;;;;;8.88;3.20;;;;;;;2.99;60.60;101084.84;4878026;29;20048;-62
2022/03/21 02:57:24;;;;;;;12.27;2.80;;;;;;;2.99;60.41;101086.78;4878169;29;20052;-62
2022/03/21 02:59:51;;;;;;;12.98;3.80;;;;;;;2.98;60.49;101087.84;4877935;29;20131;-61
2022/03/21 03:02:18;;;;;;;9.82;2.88;;;;;;;2.95;60.38;101088.34;4877969;29;20140;-61
2022/03/21 03:04:45;;;;;;;7.78;3.13;;;;;;;2.93;60.77;101090.53;4877900;29;20056;-68
2022/03/21 03:07:12;;;;;;;9.10;2.90;;;;;;;2.87;61.06;101089.56;4878116;29;20053;-67
2022/03/21 03:09:41;;;;;;;7.07;2.38;;;;;;;2.85;61.11;101088.16;4877913;29;20417;-67
2022/03/21 03:12:08;;;;;;;8.57;3.60;;;;;;;2.78;61.24;101084.72;4874603;29;20061;-67
2022/03/21 03:14:35;;;;;;;10.65;3.00;;;;;;;2.74;61.55;101086.28;4877850;29;20076;-67
2022/03/21 03:17:03;;;;;;;11.10;4.10;;;;;;;2.71;61.11;101071.13;4877942;29;20552;-68
2022/03/21 03:19:30;;;;;;;8.32;3.10;;;;;;;2.77;61.13;101074.78;4878278;29;20059;-68
2022/03/21 03:21:57;;;;;;;8.35;3.00;;;;;;;2.75;61.25;101064.06;4877817;29;20069;-68
2022/03/21 03:24:26;;;;;;;11.90;3.17;;;;;;;2.77;61.01;101075.63;4878156;29;20154;-67
2022/03/21 03:26:53;;;;;;;8.82;2.90;;;;;;;2.74;61.40;101064.28;4877301;29;20071;-67
2022/03/21 03:29:20;;;;;;;13.77;2.85;;;;;;;2.71;61.48;101068.38;4878225;29;20083;-68
2022/03/21 03:31:48;;;;;;;10.38;2.78;;;;;;;2.71;61.44;101059.28;4877596;29;20513;-67
2022/03/21 03:34:15;;;;;;;14.82;3.13;;;;;;;2.74;61.35;101067.03;4878261;29;20199;-68
2022/03/21 03:36:42;;;;;;;12.30;3.22;;;;;;;2.72;61.81;101060.97;4877696;29;20057;-68
2022/03/21 03:39:09;;;;;;;17.85;3.45;;;;;;;2.72;61.50;101063.72;4877771;29;20136;-67
2022/03/21 03:41:37;;;;;;;11.77;3.72;;;;;;;2.69;61.80;101059.53;4877413;29;20064;-68
2022/03/21 03:44:04;;;;;;;17.55;6.13;;;;;;;2.65;62.23;101060.25;4878154;29;20078;-68
2022/03/21 03:46:31;;;;;;;9.98;3.33;;;;;;;2.67;62.00;101063.63;4877389;29;20441;-68
2022/03/21 03:48:58;;;;;;;7.25;3.60;;;;;;;2.68;61.69;101066.13;4878169;29;20049;-68
2022/03/21 03:51:25;;;;;;;10.27;3.03;;;;;;;2.66;61.54;101059.22;4877214;29;20053;-68
2022/03/21 03:53:52;;;;;;;8.32;3.20;;;;;;;2.62;61.83;101061.59;4877802;29;20437;-67
2022/03/21 03:56:22;;;;;;;12.38;3.20;;;;;;;2.67;61.65;101058.13;4861335;29;20526;-69
2022/03/21 03:58:49;;;;;;;19.40;3.78;;;;;;;2.67;61.81;101052.63;4877895;29;20053;-68
2022/03/21 04:01:16;;;;;;;10.77;3.10;;;;;;;2.72;61.68;101061.78;4878460;29;20088;-68
2022/03/21 04:03:46;;;;;;;9.32;3.20;;;;;;;2.70;61.72;101052.97;4880701;29;20049;-68
2022/03/21 04:06:20;;;;;;;10.75;3.35;;;;;;;2.66;61.72;101056.47;4881022;29;20056;-68
2022/03/21 04:08:49;;;;;;;9.43;2.95;;;;;;;2.64;61.67;101058.59;4879565;29;20466;-68
2022/03/21 04:11:16;;;;;;;6.20;3.00;;;;;;;2.68;61.61;101065.28;4881025;29;20446;-68
2022/03/21 04:13:44;;;;;;;7.63;2.80;;;;;;;2.70;62.25;101052.97;4880618;29;20060;-67
2022/03/21 04:16:11;;;;;;;12.75;3.05;;;;;;;2.63;62.30;101057.75;4880971;29;20556;-67
2022/03/21 04:18:38;;;;;;;11.68;2.78;;;;;;;2.62;61.90;101055.25;4880446;29;20045;-67
2022/03/21 04:21:23;;;;;;;14.30;2.90;;;;;;;2.61;62.21;101067.34;4880500;29;20052;-67
2022/03/21 04:23:50;;;;;;;10.85;3.70;;;;;;;2.65;62.26;101071.25;4880451;29;20056;-69
2022/03/21 04:26:18;;;;;;;8.38;3.20;;;;;;;2.72;61.86;101066.47;4868703;29;20148;-63
2022/03/21 04:28:45;;;;;;;19.20;3.60;;;;;;;2.77;61.88;101067.41;4880514;29;20163;-63
2022/03/21 04:31:12;;;;;;;13.88;3.40;;;;;;;2.84;62.11;101059.84;4880454;29;20104;-62
2022/03/21 04:33:39;;;;;;;14.40;4.43;;;;;;;2.95;61.76;101060.84;4880423;29;20100;-62
2022/03/21 04:36:06;;;;;;;14.40;4.57;;;;;;;2.99;61.67;101057.38;4880651;29;20140;-63
2022/03/21 04:38:33;;;;;;;15.98;3.33;;;;;;;3.09;61.29;101059.50;4879882;29;20056;-62
2022/03/21 04:41:00;;;;;;;13.63;3.40;;;;;;;3.16;61.25;101058.25;4880423;29;20144;-62
2022/03/21 04:43:27;;;;;;;7.07;3.60;;;;;;;3.20;61.17;101061.34;4880133;29;20523;-64
2022/03/21 04:45:54;;;;;;;9.90;2.92;;;;;;;3.29;60.74;101068.09;4880391;29;20091;-64
2022/03/21 04:48:21;;;;;;;10.00;3.45;;;;;;;3.37;60.83;101062.19;4880067;29;20053;-64
2022/03/21 04:50:48;;;;;;;10.55;3.45;;;;;;;3.49;60.79;101062.94;4880347;29;20091;-64
2022/03/21 04:53:16;;;;;;;14.85;3.83;;;;;;;3.56;60.58;101060.88;4879575;29;20072;-63
2022/03/21 04:55:43;;;;;;;9.82;3.20;;;;;;;3.63;60.54;101058.78;4876768;29;20063;-64
2022/03/21 04:58:11;;;;;;;10.18;3.17;;;;;;;3.72;60.35;101065.53;4878746;29;20061;-64
2022/03/21 05:00:39;;;;;;;13.80;4.43;;;;;;;3.73;60.15;101054.28;4878572;29;20095;-65
2022/03/21 05:03:09;;;;;;;26.30;16.85;;;;;;;3.83;60.19;101063.78;4894706;29;20112;-64
2022/03/21 05:05:43;;;;;;;14.25;3.88;;;;;;;3.90;60.02;101059.75;4879886;29;20059;-63
2022/03/21 05:08:10;;;;;;;8.85;3.03;;;;;;;3.94;59.64;101063.69;4879734;29;20053;-66
2022/03/21 05:10:37;;;;;;;11.00;3.50;;;;;;;4.08;59.59;101056.72;4879172;29;20103;-64
2022/03/21 05:13:04;;;;;;;12.93;3.47;;;;;;;4.18;59.08;101065.16;4879385;29;20045;-65
2022/03/21 05:15:31;;;;;;;10.57;3.15;;;;;;;4.18;59.05;101067.91;4879049;29;20053;-64
2022/03/21 05:17:59;;;;;;;14.93;4.03;;;;;;;4.39;59.01;101056.06;4880675;29;20121;-64
2022/03/21 05:20:27;;;;;;;15.18;3.28;;;;;;;4.73;57.64;101059.50;4879216;29;20139;-64
2022/03/21 05:31:12;;;;;;;12.18;3.40;;;;;;;7.53;50.65;101063.31;4879583;29;20131;-64
2022/03/21 05:36:26;;;;;;;10.20;3.10;;;;;;;8.74;47.83;101053.69;4879593;29;20096;-63
2022/03/21 05:38:55;;;;;;;10.68;3.15;;;;;;;9.30;46.48;101048.69;4879726;29;20056;-65
2022/03/21 05:41:22;;;;;;;12.77;3.25;;;;;;;10.19;44.56;101035.13;4879456;29;20144;-64
2022/03/21 05:43:49;;;;;;;8.90;3.22;;;;;;;9.97;43.83;101036.72;4878976;29;20053;-64
2022/03/21 05:46:18;;;;;;;8.50;3.33;;;;;;;9.39;45.47;101032.22;4862443;29;20105;-64
2022/03/21 05:48:51;;;;;;;15.13;3.83;;;;;;;8.70;46.82;101041.50;4878809;29;20049;-63
2022/03/21 05:51:27;;;;;;;9.98;3.47;;;;;;;7.96;48.10;101048.06;4879443;29;20084;-64
2022/03/21 05:53:59;;;;;;;8.75;3.25;;;;;;;7.53;49.29;101043.91;4878546;29;20116;-63
2022/03/21 05:56:27;;;;;;;15.40;2.80;;;;;;;7.73;48.26;101043.94;4879105;29;20052;-64
2022/03/21 05:58:56;;;;;;;8.52;3.22;;;;;;;8.62;46.39;101042.06;4879468;29;20496;-63
2022/03/21 06:01:24;;;;;;;7.80;3.10;;;;;;;8.80;45.78;101046.19;4871516;29;20568;-64
2022/03/21 06:03:53;;;;;;;11.77;3.83;;;;;;;8.61;46.62;101040.44;4878621;29;20049;-64
2022/03/21 06:06:23;;;;;;;10.63;3.20;;;;;;;10.39;43.18;101042.47;4878916;29;20105;-64
2022/03/21 06:08:51;;;;;;;7.95;3.13;;;;;;;11.16;41.40;101038.41;4878535;29;20057;-64
2022/03/21 06:11:19;;;;;;;13.60;3.38;;;;;;;10.92;42.60;101032.88;4878813;29;20548;-65
2022/03/21 06:13:47;;;;;;;10.15;2.88;;;;;;;11.86;40.76;101038.16;4878083;29;20045;-66
2022/03/21 06:16:15;;;;;;;6.95;2.92;;;;;;;11.54;41.09;101029.72;4861966;29;20049;-65
2022/03/21 06:18:42;;;;;;;9.82;3.40;;;;;;;12.07;40.31;101033.03;4877827;29;20105;-65
2022/03/21 06:21:11;;;;;;;11.48;2.58;;;;;;;12.72;38.67;101034.56;4878659;29;20057;-66
2022/03/21 06:23:38;;;;;;;13.13;3.00;;;;;;;13.55;37.45;101032.16;4877705;29;20108;-66
2022/03/21 06:26:07;;;;;;;11.32;3.25;;;;;;;14.88;35.56;101027.19;4878361;29;20140;-67
2022/03/21 06:28:35;;;;;;;7.88;2.90;;;;;;;15.97;33.33;101027.63;4878344;29;20059;-67
2022/03/21 06:31:03;;;;;;;14.63;3.20;;;;;;;16.91;31.65;101026.50;4875389;29;20559;-66
2022/03/21 06:33:31;;;;;;;13.35;3.80;;;;;;;18.56;29.13;101010.38;4878341;29;20085;-67
2022/03/21 06:36:00;;;;;;;11.10;3.80;;;;;;;19.60;27.52;101026.31;4878069;29;20052;-67
2022/03/21 06:38:28;;;;;;;13.10;3.70;;;;;;;19.60;27.18;101021.47;4878209;29;20056;-67
2022/03/21 06:40:55;;;;;;;12.25;3.58;;;;;;;19.43;27.32;101015.28;4877400;29;20326;-68
2022/03/21 06:43:24;;;;;;;10.93;3.72;;;;;;;19.27;27.40;101023.66;4878423;29;20049;-66
2022/03/21 06:45:51;;;;;;;10.45;3.47;;;;;;;18.86;27.49;101018.25;4878211;29;20403;-67
2022/03/21 06:48:20;;;;;;;9.43;3.78;;;;;;;19.73;26.28;101023.09;4878045;29;20140;-66
2022/03/21 06:50:48;;;;;;;12.55;3.60;;;;;;;20.77;24.44;101019.94;4877702;29;20482;-67
2022/03/21 06:53:16;;;;;;;14.55;3.10;;;;;;;18.79;26.32;101009.56;4878210;29;20060;-67
2022/03/21 06:55:44;;;;;;;16.92;3.60;;;;;;;16.57;29.12;101018.22;4877948;29;20136;-67
2022/03/21 06:58:13;;;;;;;10.32;3.65;;;;;;;17.05;28.58;101022.28;4877997;29;20203;-66
2022/03/21 07:00:42;;;;;;;21.13;3.30;;;;;;;16.89;28.45;101015.59;4877796;29;20055;-67
2022/03/21 07:03:12;;;;;;;10.15;3.20;;;;;;;17.18;27.76;101011.94;4877950;29;20052;-68
2022/03/21 07:05:40;;;;;;;10.60;3.37;;;;;;;16.10;29.44;101009.75;4878027;29;20053;-67
2022/03/21 07:08:07;;;;;;;10.75;3.40;;;;;;;16.30;29.40;101008.22;4878160;29;20105;-68
2022/03/21 07:10:34;;;;;;;17.98;2.88;;;;;;;17.10;28.41;101004.38;4877844;29;20095;-67
2022/03/21 07:13:04;;;;;;;8.48;2.97;;;;;;;17.81;26.92;101000.38;4878237;29;20052;-68
2022/03/21 07:15:31;;;;;;;9.45;2.67;;;;;;;17.89;26.64;100999.47;4877938;29;20053;-66
2022/03/21 07:17:59;;;;;;;11.10;3.72;;;;;;;18.52;26.17;100998.97;4878060;29;20489;-67
2022/03/21 07:20:26;;;;;;;15.73;4.05;;;;;;;19.98;24.56;100986.28;4877973;29;20057;-64
2022/03/21 07:22:54;;;;;;;14.52;3.55;;;;;;;20.82;23.29;100992.22;4878243;29;20488;-65
2022/03/21 07:25:22;;;;;;;12.13;3.10;;;;;;;19.74;24.45;100990.00;4880948;29;20080;-65
2022/03/21 07:27:49;;;;;;;8.25;2.97;;;;;;;18.73;25.53;100998.84;4877854;29;20067;-65
2022/03/21 07:30:16;;;;;;;13.55;3.28;;;;;;;19.28;24.73;100991.47;4878031;29;20474;-64
2022/03/21 07:32:44;;;;;;;12.93;2.95;;;;;;;20.15;24.00;100994.44;4878405;29;20578;-65
2022/03/21 07:35:13;;;;;;;11.63;4.40;;;;;;;22.23;21.78;100992.59;4877678;29;20057;-65
2022/03/21 07:37:46;;;;;;;9.82;3.17;;;;;;;24.77;19.20;100998.75;4880049;29;20124;-65
2022/03/21 07:40:14;;;;;;;15.43;4.05;;;;;;;24.40;19.79;100989.41;4881602;29;20101;-63
2022/03/21 07:42:43;;;;;;;14.20;3.33;;;;;;;22.86;20.78;100996.59;4880559;29;20129;-63
2022/03/21 07:47:58;;;;;;;18.83;3.40;;;;;;;20.55;23.11;100981.00;4882365;29;20060;-62
2022/03/21 07:50:26;;;;;;;12.38;3.22;;;;;;;20.82;22.22;100982.91;4880762;29;20105;-65
2022/03/21 07:52:55;;;;;;;10.27;2.75;;;;;;;19.14;23.35;100984.50;4864359;29;20061;-64
2022/03/21 07:55:23;;;;;;;9.15;3.20;;;;;;;17.97;24.82;100973.25;4882159;29;20065;-64
2022/03/21 07:57:50;;;;;;;9.38;3.30;;;;;;;17.74;24.75;100971.97;4880754;29;20104;-64
2022/03/21 08:00:17;;;;;;;7.47;3.00;;;;;;;19.09;23.32;100970.63;4881274;29;20049;-63
2022/03/21 08:02:45;;;;;;;5.68;2.47;;;;;;;19.92;22.28;100963.94;4880158;29;20393;-64
2022/03/21 08:05:13;;;;;;;9.73;3.00;;;;;;;19.79;22.49;100967.16;4861274;29;20508;-64
2022/03/21 08:07:41;;;;;;;11.70;3.13;;;;;;;20.83;21.72;100971.22;4879774;29;20485;-65
2022/03/21 08:10:09;;;;;;;11.00;3.65;;;;;;;21.46;21.18;100971.91;4881111;29;20513;-65
2022/03/21 08:12:42;;;;;;;9.10;2.78;;;;;;;22.24;20.34;100971.53;4880430;29;20449;-65
2022/03/21 08:15:12;;;;;;;19.13;3.20;;;;;;;22.45;19.81;100975.59;4881307;29;20509;-65
2022/03/21 08:17:56;;;;;;;7.95;2.63;;;;;;;22.14;19.82;100975.78;4863726;29;20057;-65
2022/03/21 08:20:25;;;;;;;10.57;3.15;;;;;;;21.92;20.20;100976.56;4880977;29;20087;-65
2022/03/21 08:22:53;;;;;;;12.98;3.53;;;;;;;23.38;18.74;100977.56;4880131;29;20107;-66
2022/03/21 08:25:20;;;;;;;10.10;3.58;;;;;;;26.06;16.79;100986.59;4876724;29;20093;-64
2022/03/21 08:27:48;;;;;;;9.20;3.03;;;;;;;28.37;14.94;100985.56;4880290;29;20918;-64
2022/03/21 08:30:16;;;;;;;10.00;3.17;;;;;;;29.36;14.13;100972.09;4880851;29;20522;-64
2022/03/21 08:32:45;;;;;;;11.18;3.97;;;;;;;30.03;13.40;100977.88;4879930;29;20056;-64
2022/03/21 08:35:13;;;;;;;7.60;2.63;;;;;;;30.44;12.69;100982.66;4880332;29;20108;-66
2022/03/21 08:37:40;;;;;;;10.45;3.10;;;;;;;30.83;12.73;100977.16;4880040;29;20087;-65
2022/03/21 08:40:08;;;;;;;8.27;2.35;;;;;;;32.88;11.71;100981.19;4880706;29;20509;-66
2022/03/21 08:42:37;;;;;;;10.88;3.33;;;;;;;33.66;11.21;100982.84;4879895;29;20100;-66
2022/03/21 08:45:05;;;;;;;11.60;3.35;;;;;;;34.40;10.70;100984.38;4880609;29;20063;-67
2022/03/21 08:47:33;;;;;;;10.40;3.10;;;;;;;35.43;9.95;100988.38;4879920;29;20084;-67
2022/03/21 08:50:00;;;;;;;9.38;2.95;;;;;;;35.88;9.71;100975.13;4880159;29;20296;-67
2022/03/21 08:52:28;;;;;;;9.35;3.38;;;;;;;35.93;9.42;100988.19;4879679;29;20450;-67
2022/03/21 08:54:56;;;;;;;10.70;3.33;;;;;;;36.12;9.26;100982.06;4879762;29;20056;-66
2022/03/21 08:57:24;;;;;;;9.30;3.20;;;;;;;36.01;9.21;100981.66;4879389;29;20053;-64
2022/03/21 08:59:52;;;;;;;7.40;2.90;;;;;;;35.90;8.71;100978.34;4877020;29;20076;-65
2022/03/21 09:02:20;;;;;;;12.90;3.28;;;;;;;35.41;9.15;100980.16;4879688;29;20112;-65
2022/03/21 09:04:47;;;;;;;10.75;3.88;;;;;;;35.83;8.93;100972.84;4879855;29;20488;-64
2022/03/21 09:07:15;;;;;;;10.13;3.38;;;;;;;35.95;8.82;100963.28;4879465;29;20053;-64
2022/03/21 09:09:42;;;;;;;10.52;3.10;;;;;;;35.37;8.79;100970.00;4879135;29;20148;-64
2022/03/21 09:12:10;;;;;;;12.10;3.67;;;;;;;36.06;8.71;100963.69;4879172;29;20140;-64
2022/03/21 09:14:38;;;;;;;7.93;2.97;;;;;;;36.73;8.02;100969.66;4879065;29;20053;-64
2022/03/21 09:17:06;;;;;;;8.63;3.47;;;;;;;37.35;7.91;100961.69;4879801;29;20121;-65
2022/03/21 09:19:33;;;;;;;44.63;20.17;;;;;;;37.28;7.81;100956.19;4879197;29;20484;-64
2022/03/21 09:22:01;;;;;;;7.40;3.20;;;;;;;37.29;7.73;100954.91;4879700;29;20394;-64
2022/03/21 09:24:29;;;;;;;8.85;3.38;;;;;;;37.26;7.87;100953.75;4873163;29;20501;-63
2022/03/21 09:26:56;;;;;;;8.10;2.97;;;;;;;37.39;7.69;100953.63;4879125;29;20137;-64
2022/03/21 09:29:24;;;;;;;44.10;4.25;;;;;;;37.00;7.61;100958.19;4879422;29;20497;-64
2022/03/21 09:31:53;;;;;;;9.75;3.45;;;;;;;36.61;7.60;100956.91;4863214;29;20247;-65
2022/03/21 09:34:20;;;;;;;12.68;2.72;;;;;;;36.76;7.39;100954.25;4879386;29;20152;-65
2022/03/21 09:36:47;;;;;;;8.32;2.80;;;;;;;35.44;7.82;100955.25;4879426;29;20477;-65
2022/03/21 09:39:15;;;;;;;9.35;2.83;;;;;;;35.93;8.36;100954.22;4879026;29;20444;-65
2022/03/21 09:41:42;;;;;;;9.57;3.22;;;;;;;36.73;7.41;100955.97;4879347;29;20064;-64
2022/03/21 09:44:10;;;;;;;9.80;2.83;;;;;;;36.23;7.58;100950.56;4878587;29;20394;-64
2022/03/21 09:46:39;;;;;;;9.80;2.30;;;;;;;33.09;8.90;100955.50;4879086;29;20052;-64
2022/03/21 09:49:08;;;;;;;12.02;2.70;;;;;;;28.01;11.94;100958.38;4878895;29;20470;-64
2022/03/21 09:51:35;;;;;;;5.72;2.40;;;;;;;25.51;14.08;100959.41;4878330;29;20131;-64
2022/03/21 09:54:03;;;;;;;5.97;2.30;;;;;;;23.20;15.65;100952.91;4879367;29;20052;-65
2022/03/21 09:56:30;;;;;;;28.08;13.88;;;;;;;20.95;17.45;100956.16;4878639;29;20084;-64
2022/03/21 09:59:00;;;;;;;5.70;2.53;;;;;;;19.61;18.57;100961.00;4878574;29;20121;-65
2022/03/21 10:01:29;;;;;;;9.70;2.63;;;;;;;18.22;20.24;100949.56;4878413;29;20060;-64
2022/03/21 10:03:58;;;;;;;8.02;2.50;;;;;;;17.49;21.11;100945.72;4878746;29;20052;-67
2022/03/21 10:06:24;;;;;;;9.63;2.50;;;;;;;16.86;21.56;100953.59;4862470;29;20484;-67
2022/03/21 10:09:04;;;;;;;11.57;2.72;;;;;;;16.02;22.94;100959.25;4878720;29;20434;-66
2022/03/21 10:11:32;;;;;;;;;;;;;;;15.55;22.76;100958.38;4878700;29;20057;-66
2022/03/21 10:14:01;;;;;;;8.70;2.45;;;;;;;15.28;23.61;100955.84;4878665;29;19953;-67
2022/03/21 10:16:28;;;;;;;9.60;3.08;;;;;;;15.09;24.04;100957.31;4878374;29;20577;-67
2022/03/21 10:18:58;;;;;;;21.75;3.72;;;;;;;14.98;24.56;100959.63;4878740;29;20049;-66
2022/03/21 10:21:27;;;;;;;10.77;2.40;;;;;;;14.81;24.19;100958.78;4878366;29;20472;-67
2022/03/21 10:24:06;;;;;;;11.35;3.05;;;;;;;14.78;24.88;100954.66;4872872;29;20575;-66
2022/03/21 10:26:41;;;;;;;9.82;2.88;;;;;;;14.61;25.03;100963.00;4877302;29;20120;-67
2022/03/21 10:29:14;;;;;;;14.18;2.40;;;;;;;14.37;25.51;100963.44;4878832;29;20417;-68
2022/03/21 10:31:47;;;;;;;12.18;2.42;;;;;;;14.14;25.99;100956.22;4878107;29;20114;-66
2022/03/21 10:34:16;;;;;;;9.45;2.33;;;;;;;13.80;26.16;100960.78;4878350;29;20501;-66
2022/03/21 10:37:04;;;;;;;13.10;1.98;;;;;;;13.78;26.37;100968.66;4878223;29;20060;-65
2022/03/21 10:39:34;;;;;;;14.27;3.15;;;;;;;13.77;26.68;100956.63;4877998;29;20446;-67
2022/03/21 10:42:07;;;;;;;7.07;2.45;;;;;;;13.72;26.63;100953.16;4878178;29;20136;-66
2022/03/21 10:44:34;;;;;;;10.93;2.58;;;;;;;13.75;26.68;100952.53;4878027;29;20135;-68
2022/03/21 10:47:04;;;;;;;8.70;2.67;;;;;;;13.69;26.86;100942.63;4878252;29;20049;-67
2022/03/21 10:49:43;;;;;;;7.68;1.90;;;;;;;13.57;26.92;100950.75;4878064;29;20077;-67
2022/03/21 10:52:18;;;;;;;9.93;2.67;;;;;;;13.41;27.47;100947.50;4878307;29;20057;-67
2022/03/21 10:54:50;;;;;;;10.95;1.98;;;;;;;13.43;27.54;100953.63;4877564;29;20079;-67
2022/03/21 10:57:37;;;;;;;13.35;2.33;;;;;;;13.46;27.48;100952.16;4878255;29;20474;-68
2022/03/21 11:00:14;;;;;;;8.10;2.22;;;;;;;13.50;27.55;100956.78;4874657;29;20461;-67
2022/03/21 11:02:55;;;;;;;12.85;2.47;;;;;;;13.49;27.56;100960.72;4877653;29;20052;-67
2022/03/21 11:05:24;;;;;;;7.15;2.05;;;;;;;13.49;28.04;100951.50;4875594;29;20101;-67
2022/03/21 11:07:51;;;;;;;7.70;2.35;;;;;;;13.33;27.85;100958.63;4877429;29;20144;-66
2022/03/21 11:10:18;;;;;;;4.20;1.65;;;;;;;13.17;28.17;100946.19;4877996;29;20129;-66
2022/03/21 11:12:45;;;;;;;16.27;2.80;;;;;;;13.07;28.33;100952.81;4880860;29;20052;-67
2022/03/21 11:15:13;;;;;;;7.18;1.83;;;;;;;12.94;28.41;100951.69;4881981;29;20484;-66
2022/03/21 11:17:41;;;;;;;8.80;2.05;;;;;;;12.89;28.63;100949.03;4881594;29;20084;-67
2022/03/21 11:20:10;;;;;;;8.93;2.03;;;;;;;12.84;28.56;100951.09;4881397;29;20405;-67
2022/03/21 11:22:39;;;;;;;7.43;2.10;;;;;;;12.83;28.98;100955.03;4880762;29;20057;-67
2022/03/21 11:25:08;;;;;;;7.75;1.92;;;;;;;12.86;29.11;100948.81;4880691;29;20041;-67
2022/03/21 11:27:45;;;;;;;5.20;1.67;;;;;;;12.86;29.27;100952.44;4881355;29;20440;-68
2022/03/21 11:30:50;;;;;;;7.50;2.15;;;;;;;12.87;28.67;100936.50;4881092;29;20056;-68
2022/03/21 11:33:42;;;;;;;4.35;1.75;;;;;;;12.82;28.90;100934.66;4881542;29;20537;-67
2022/03/21 11:36:11;;;;;;;6.50;1.77;;;;;;;12.70;28.66;100923.19;4881118;29;20057;-67
2022/03/21 11:38:46;;;;;;;7.05;2.05;;;;;;;12.69;28.37;100943.88;4864220;29;20413;-67
2022/03/21 11:41:21;;;;;;;11.02;2.78;;;;;;;12.61;29.08;100938.19;4880875;29;20424;-67
2022/03/21 11:44:03;;;;;;;6.70;2.15;;;;;;;12.60;28.58;100923.44;4878588;29;20068;-67
2022/03/21 11:46:35;;;;;;;7.30;2.03;;;;;;;12.58;28.56;100928.47;4873005;29;20151;-67
2022/03/21 11:49:33;;;;;;;12.52;1.80;;;;;;;12.56;28.49;100932.72;4881446;29;20053;-68
2022/03/21 11:52:00;;;;;;;6.13;2.40;;;;;;;12.54;28.17;100932.22;4871351;29;20061;-67